Latest Coastal Weather Observations for Parndana

IDS60701

Issued at 7:51 am CDT Monday 27 February 2017 (issued every 10 minutes, with the page automatically refreshed every 10 minutes)

About coastal observations | Map of coastal stations | Coastal observations for SA | Marine services | Other Formats
Station Details ID: 022843 Name: PARNDANA CFS AWS Lat: -35.79 Lon: 137.25 Height: 165.0 m
Data from the previous 72 hours. | See also: Recent months at Parndana
Date/Time
CDT
Temp
°C
Wind Pressure Rain since
9am
mm
Weather Cloud Vis
km
Sea
Height
m
Swell
Dir  Spd
kts
Gust
kts
hPa Trend Height
m
Period
s
Dir
27/07:30am 13.8 S 4 5 - - 0.0 - - - - - - -
27/07:00am 10.4 S 2 3 - - 0.0 - - - - - - -
27/06:30am 13.2 ESE 2 3 - - 0.0 - - - - - - -
27/06:00am 12.6 SSE 2 3 - - 0.0 - - - - - - -
27/05:30am 13.5 SE 2 3 - - 0.0 - - - - - - -
27/05:00am 13.8 ESE 3 4 - - 0.0 - - - - - - -
27/04:30am 14.5 ESE 4 5 - - 0.0 - - - - - - -
27/04:00am 14.6 ESE 6 9 - - 0.0 - - - - - - -
27/03:30am 14.8 ESE 8 11 - - 0.0 - - - - - - -
27/03:00am 14.7 SE 6 9 - - 0.0 - - - - - - -
27/02:30am 14.6 SE 7 9 - - 0.0 - - - - - - -
27/02:00am 14.6 SE 6 9 - - 0.0 - - - - - - -
27/01:30am 14.3 SE 6 8 - - 0.0 - - - - - - -
27/01:00am 14.2 SE 6 9 - - 0.0 - - - - - - -
27/12:30am 12.8 SSE 4 5 - - 0.0 - - - - - - -
27/12:00am 13.1 SSE 6 7 - - 0.0 - - - - - - -
 
Date/Time
CDT
Temp
°C
Wind Pressure Rain since
9am
mm
Weather Cloud Vis
km
Sea
Height
m
Swell
Dir  Spd
kts
Gust
kts
hPa Trend Height
m
Period
s
Dir
26/11:30pm 13.6 SSE 7 9 - - 0.0 - - - - - - -
26/11:00pm 14.1 SSE 7 8 - - 0.0 - - - - - - -
26/10:30pm 14.2 SSE 7 8 - - 0.0 - - - - - - -
26/10:00pm 14.6 SSE 7 9 - - 0.0 - - - - - - -
26/09:30pm 14.7 SSE 7 11 - - 0.0 - - - - - - -
26/09:00pm 14.0 SSE 7 9 - - 0.0 - - - - - - -
26/08:30pm 15.0 SE 7 9 - - 0.0 - - - - - - -
26/08:00pm 16.4 SE 9 12 - - 0.0 - - - - - - -
26/07:30pm 17.9 SE 10 12 - - 0.0 - - - - - - -
26/07:00pm 19.5 SE 10 13 - - 0.0 - - - - - - -
26/06:30pm 21.0 SE 9 13 - - 0.0 - - - - - - -
26/06:00pm 21.9 SE 9 11 - - 0.0 - - - - - - -
26/05:30pm 22.5 SE 8 12 - - 0.0 - - - - - - -
26/05:00pm 23.6 SE 8 13 - - 0.0 - - - - - - -
26/04:30pm 23.6 SE 8 11 - - 0.0 - - - - - - -
26/04:00pm 23.9 SE 6 10 - - 0.0 - - - - - - -
26/03:30pm 24.2 SE 7 12 - - 0.0 - - - - - - -
26/03:00pm 24.7 ESE 7 10 - - 0.0 - - - - - - -
26/02:30pm 23.4 ESE 7 12 - - 0.0 - - - - - - -
26/02:00pm 24.0 ESE 8 12 - - 0.0 - - - - - - -
26/01:30pm 22.9 ESE 8 13 - - 0.0 - - - - - - -
26/01:00pm 22.1 E 8 12 - - 0.0 - - - - - - -
26/12:30pm 21.3 ESE 8 12 - - 0.0 - - - - - - -
26/12:00pm 21.0 ESE 8 14 - - 0.0 - - - - - - -
26/11:30am 20.8 ESE 10 15 - - 0.0 - - - - - - -
26/11:00am 19.4 ESE 9 13 - - 0.0 - - - - - - -
26/10:30am 18.6 ESE 10 14 - - 0.0 - - - - - - -
26/10:00am 18.1 ESE 10 15 - - 0.0 - - - - - - -
26/09:30am 16.2 E 10 15 - - 0.0 - - - - - - -
26/09:00am 15.0 ESE 7 8 - - 0.0 - - - - - - -
26/08:30am 13.1 SSE 3 5 - - 0.0 - - - - - - -
26/08:00am 11.2 SSE 2 3 - - 0.0 - - - - - - -
26/07:30am 9.9 S 3 3 - - 0.0 - - - - - - -
26/07:00am 9.0 S 3 4 - - 0.0 - - - - - - -
26/06:30am 9.4 SSE 7 8 - - 0.0 - - - - - - -
26/06:00am 9.1 SSE 7 8 - - 0.0 - - - - - - -
26/05:30am 8.4 SE 6 7 - - 0.0 - - - - - - -
26/05:00am 10.0 SSE 4 5 - - 0.0 - - - - - - -
26/04:30am 9.4 SE 6 7 - - 0.0 - - - - - - -
26/04:00am 10.2 SE 4 5 - - 0.0 - - - - - - -
26/03:30am 10.0 S 3 4 - - 0.0 - - - - - - -
26/03:00am 9.8 SSE 3 4 - - 0.0 - - - - - - -
26/02:30am 9.3 SSE 5 6 - - 0.0 - - - - - - -
26/02:00am 10.5 SSE 4 5 - - 0.0 - - - - - - -
26/01:30am 10.5 SSE 6 8 - - 0.0 - - - - - - -
26/01:00am 10.7 SSE 8 9 - - 0.0 - - - - - - -
26/12:30am 10.5 SSE 8 9 - - 0.0 - - - - - - -
26/12:00am 11.3 SSE 8 9 - - 0.0 - - - - - - -
 
Date/Time
CDT
Temp
°C
Wind Pressure Rain since
9am
mm
Weather Cloud Vis
km
Sea
Height
m
Swell
Dir  Spd
kts
Gust
kts
hPa Trend Height
m
Period
s
Dir
25/11:30pm 11.5 S 7 8 - - 0.0 - - - - - - -
25/11:00pm 11.6 SSE 7 9 - - 0.0 - - - - - - -
25/10:30pm 11.6 SSE 8 9 - - 0.0 - - - - - - -
25/10:00pm 12.3 SSE 9 12 - - 0.0 - - - - - - -
25/09:30pm 12.9 SSE 10 13 - - 0.0 - - - - - - -
25/09:00pm 13.2 SSE 9 10 - - 0.0 - - - - - - -
25/08:30pm 14.1 SE 10 14 - - 0.0 - - - - - - -
25/08:00pm 14.8 SE 11 17 - - 0.0 - - - - - - -
25/07:30pm 15.5 SE 12 16 - - 0.0 - - - - - - -
25/07:00pm 16.4 SE 13 19 - - 0.0 - - - - - - -
25/06:30pm 17.0 SE 14 19 - - 0.0 - - - - - - -
25/06:00pm 18.6 SE 13 19 - - 0.0 - - - - - - -
25/05:30pm 18.7 SSE 14 20 - - 0.0 - - - - - - -
25/05:00pm 19.3 SSE 14 19 - - 0.0 - - - - - - -
25/04:30pm 19.4 SSE 15 22 - - 0.0 - - - - - - -
25/04:00pm 19.8 SE 13 19 - - 0.0 - - - - - - -
25/03:30pm 20.2 SE 13 21 - - 0.0 - - - - - - -
25/03:00pm 19.7 SSE 14 20 - - 0.0 - - - - - - -
25/02:30pm 20.2 SE 13 20 - - 0.0 - - - - - - -
25/02:00pm 20.3 SSE 12 21 - - 0.0 - - - - - - -
25/01:30pm 19.4 SSE 13 18 - - 0.0 - - - - - - -
25/01:00pm 19.7 SSE 15 21 - - 0.0 - - - - - - -
25/12:30pm 20.1 SE 12 18 - - 0.0 - - - - - - -
25/12:00pm 19.9 SSE 12 17 - - 0.0 - - - - - - -
25/11:30am 19.1 SSE 13 17 - - 0.0 - - - - - - -
25/11:00am 17.9 SE 11 15 - - 0.0 - - - - - - -
25/10:30am 17.6 SSE 12 17 - - 0.0 - - - - - - -
25/10:00am 18.2 ESE 14 23 - - 0.0 - - - - - - -
25/09:30am 17.1 SE 13 16 - - 0.0 - - - - - - -
25/09:00am 17.0 SE 10 14 - - 0.0 - - - - - - -
25/08:30am 16.5 SE 9 12 - - 0.0 - - - - - - -
25/08:00am 15.6 SE 8 10 - - 0.0 - - - - - - -
25/07:30am 15.3 SE 8 11 - - 0.0 - - - - - - -
25/07:00am 15.0 SSE 8 11 - - 0.0 - - - - - - -
25/06:30am 15.0 SE 10 13 - - 0.0 - - - - - - -
25/06:00am 14.5 SSE 7 9 - - 0.0 - - - - - - -
25/05:30am 14.4 SSE 7 10 - - 0.0 - - - - - - -
25/05:00am 14.0 SSE 7 10 - - 0.0 - - - - - - -
25/04:30am 12.3 SSE 8 9 - - 0.0 - - - - - - -
25/04:00am 13.5 SE 10 12 - - 0.0 - - - - - - -
25/03:30am 14.2 SE 8 10 - - 0.0 - - - - - - -
25/03:00am 14.0 SE 6 9 - - 0.0 - - - - - - -
25/02:30am 13.8 SSE 7 9 - - 0.0 - - - - - - -
25/02:00am 12.2 SSE 8 9 - - 0.0 - - - - - - -
25/01:30am 12.8 SSE 8 9 - - 0.0 - - - - - - -
25/01:00am 13.7 SE 8 10 - - 0.0 - - - - - - -
25/12:30am 15.0 SSE 9 13 - - 0.0 - - - - - - -
25/12:00am 15.3 SE 9 13 - - 0.0 - - - - - - -
 
Date/Time
CDT
Temp
°C
Wind Pressure Rain since
9am
mm
Weather Cloud Vis
km
Sea
Height
m
Swell
Dir  Spd
kts
Gust
kts
hPa Trend Height
m
Period
s
Dir
24/11:30pm 15.5 SSE 9 11 - - 0.0 - - - - - - -
24/11:00pm 15.4 SSE 8 10 - - 0.0 - - - - - - -
24/10:30pm 14.7 SSE 8 11 - - 0.0 - - - - - - -
24/10:00pm 15.7 SSE 10 14 - - 0.0 - - - - - - -
24/09:30pm 15.6 SE 8 10 - - 0.0 - - - - - - -
24/09:00pm 15.6 SE 9 13 - - 0.0 - - - - - - -
24/08:30pm 15.6 SSE 12 16 - - 0.0 - - - - - - -
24/08:00pm 16.0 SSE 13 17 - - 0.0 - - - - - - -
24/07:30pm 16.2 SSE 12 15 - - 0.0 - - - - - - -
24/07:00pm 16.4 S 12 16 - - 0.0 - - - - - - -
24/06:30pm 16.7 S 14 19 - - 0.0 - - - - - - -
24/06:00pm 17.8 SSE 12 18 - - 0.0 - - - - - - -
24/05:30pm 17.7 SSE 15 19 - - 0.0 - - - - - - -
24/05:00pm 18.0 SSE 13 19 - - 0.0 - - - - - - -
24/04:30pm 18.1 SSE 12 17 - - 0.0 - - - - - - -
24/04:00pm 18.1 SSE 12 16 - - 0.0 - - - - - - -
24/03:30pm 18.7 SSE 12 18 - - 0.0 - - - - - - -
24/03:00pm 18.3 S 12 16 - - 0.0 - - - - - - -
24/02:30pm 18.4 S 13 17 - - 0.0 - - - - - - -
24/02:00pm 19.1 S 12 16 - - 0.0 - - - - - - -
24/01:30pm 18.9 SSE 12 15 - - 0.0 - - - - - - -
24/01:00pm 18.9 SSE 11 16 - - 0.0 - - - - - - -
24/12:30pm 18.2 SSE 10 15 - - 0.0 - - - - - - -
24/12:00pm 18.4 S 10 14 - - 0.0 - - - - - - -
24/11:30am 18.3 S 10 14 - - 0.0 - - - - - - -
24/11:00am 17.7 S 8 13 - - 0.0 - - - - - - -
24/10:30am 17.7 S 8 12 - - 0.0 - - - - - - -
24/10:00am 17.0 SSW 8 12 - - 0.0 - - - - - - -
24/09:30am 16.4 SSE 6 7 - - 0.0 - - - - - - -
24/09:00am 15.7 S 4 5 - - 0.0 - - - - - - -
24/08:30am 15.2 S 2 3 - - 0.0 - - - - - - -
24/08:00am 14.5 S 3 4 - - 0.0 - - - - - - -

Other Formats:

Comma delimited format used in spreadsheet applications
http://www.bom.gov.au/fwo/IDS60701/IDS60701.94807.axf

JavaScript Object Notation format (JSON) in row-major order
http://www.bom.gov.au/fwo/IDS60701/IDS60701.94807.json